createdAt,value
2024-03-02T09:01:38.344Z,26.29
2024-03-02T09:02:15.767Z,26.30
2024-03-02T09:03:15.741Z,26.27
2024-03-02T09:04:15.758Z,26.30
2024-03-02T09:05:15.760Z,26.30
2024-03-02T09:06:15.826Z,26.29
2024-03-02T09:07:15.775Z,26.32
2024-03-02T09:08:15.774Z,26.29
2024-03-02T09:09:15.760Z,26.33
2024-03-02T09:10:15.764Z,26.33
2024-03-02T09:11:15.779Z,26.33
2024-03-02T09:12:15.754Z,26.35
2024-03-02T09:13:15.757Z,26.35
2024-03-02T09:14:15.783Z,26.40
2024-03-02T09:15:15.769Z,26.37
2024-03-02T09:16:15.864Z,26.40
2024-03-02T09:17:15.812Z,26.40
2024-03-02T09:18:15.803Z,26.43
2024-03-02T09:19:15.816Z,26.44
2024-03-02T09:20:15.793Z,26.44
2024-03-02T09:21:15.854Z,26.46
2024-03-02T09:22:15.870Z,26.50
2024-03-02T09:23:15.899Z,26.48
2024-03-02T09:24:17.731Z,26.48
2024-03-02T09:25:15.938Z,26.51
2024-03-02T09:26:15.948Z,26.50
2024-03-02T09:27:15.970Z,26.50
2024-03-02T09:28:15.929Z,26.53
2024-03-02T09:29:15.953Z,26.51
2024-03-02T09:30:23.274Z,26.51
2024-03-02T09:31:23.267Z,26.53
2024-03-02T09:32:23.242Z,26.53
2024-03-02T09:33:23.326Z,26.56
2024-03-02T09:34:23.278Z,26.54
2024-03-02T09:35:23.259Z,26.57
2024-03-02T09:36:23.355Z,26.53
2024-03-02T09:37:23.268Z,26.57
2024-03-02T09:38:23.294Z,26.56
2024-03-02T09:39:23.344Z,26.57
2024-03-02T09:40:23.264Z,26.57
2024-03-02T09:41:23.286Z,26.58
2024-03-02T09:42:24.750Z,26.58
2024-03-02T09:43:23.267Z,26.57
2024-03-02T09:44:23.277Z,26.60
2024-03-02T09:45:23.329Z,26.60
2024-03-02T09:46:23.270Z,26.58
2024-03-02T09:47:23.285Z,26.58
2024-03-02T09:48:23.313Z,26.58
2024-03-02T09:49:23.265Z,26.58
2024-03-02T09:50:23.317Z,26.58
2024-03-02T09:51:23.314Z,26.60
2024-03-02T09:52:23.270Z,26.60
2024-03-02T09:53:23.298Z,26.57
2024-03-02T09:54:23.754Z,26.63
2024-03-02T09:55:23.315Z,26.57
2024-03-02T09:56:23.308Z,26.58
2024-03-02T09:57:23.297Z,26.61
2024-03-02T09:58:23.305Z,26.63
2024-03-02T09:59:23.315Z,26.60
2024-03-02T10:00:23.306Z,26.60
2024-03-02T10:01:23.403Z,26.61
2024-03-02T10:02:23.389Z,26.63
2024-03-02T10:03:23.300Z,26.61
2024-03-02T10:04:23.304Z,26.61
2024-03-02T10:05:23.295Z,26.61
2024-03-02T10:06:23.355Z,26.61
2024-03-02T10:07:23.293Z,26.61
2024-03-02T10:08:23.299Z,26.61
2024-03-02T10:09:23.318Z,26.61
2024-03-02T10:10:24.238Z,26.63
2024-03-02T10:11:23.361Z,26.63
2024-03-02T10:12:23.354Z,26.61
2024-03-02T10:13:23.305Z,26.63
2024-03-02T10:14:23.314Z,26.61
2024-03-02T10:15:23.345Z,26.63
2024-03-02T10:16:23.305Z,26.63
2024-03-02T10:17:23.319Z,26.63
2024-03-02T10:18:23.336Z,26.60
2024-03-02T10:19:23.309Z,26.61
2024-03-02T10:20:23.321Z,26.64
2024-03-02T10:21:23.354Z,26.63
2024-03-02T10:22:23.326Z,26.63
2024-03-02T10:23:23.353Z,26.64
2024-03-02T10:24:23.324Z,26.64
2024-03-02T10:25:36.585Z,26.67
2024-03-02T10:26:24.344Z,26.66
2024-03-02T10:27:23.390Z,26.64
2024-03-02T10:28:23.387Z,26.67
2024-03-02T10:29:23.354Z,26.66
2024-03-02T10:30:23.360Z,26.68
2024-03-02T10:31:23.352Z,26.67
2024-03-02T10:32:23.363Z,26.67
2024-03-02T10:33:23.395Z,26.70
2024-03-02T10:34:23.356Z,26.71
2024-03-02T10:35:23.473Z,26.71
2024-03-02T10:36:23.372Z,26.71
2024-03-02T10:37:23.368Z,26.74
2024-03-02T10:38:23.369Z,26.73
2024-03-02T10:39:23.381Z,26.74
2024-03-02T10:40:23.371Z,26.74
2024-03-02T10:41:23.401Z,26.77
2024-03-02T10:42:23.373Z,26.75
2024-03-02T10:43:23.371Z,26.78
2024-03-02T10:44:23.388Z,26.78
2024-03-02T10:45:23.382Z,26.80
2024-03-02T10:46:23.382Z,26.80
2024-03-02T10:47:23.390Z,26.78
2024-03-02T10:48:23.387Z,26.83
2024-03-02T10:49:23.346Z,26.84
2024-03-02T10:50:23.353Z,26.83
2024-03-02T10:51:23.394Z,26.83
2024-03-02T10:52:23.368Z,26.85
2024-03-02T10:53:23.389Z,26.87
2024-03-02T10:54:23.391Z,26.88
2024-03-02T10:55:23.599Z,26.88
2024-03-02T10:56:23.382Z,26.88
2024-03-02T10:57:23.370Z,26.90
2024-03-02T10:58:23.442Z,26.90
2024-03-02T10:59:23.372Z,26.93
2024-03-02T11:00:23.383Z,26.90
2024-03-02T11:01:23.496Z,26.91
2024-03-02T11:02:23.363Z,26.93
2024-03-02T11:03:23.392Z,26.93
2024-03-02T11:04:23.456Z,26.94
2024-03-02T11:05:23.359Z,26.95
2024-03-02T11:06:23.360Z,26.97
2024-03-02T11:07:23.408Z,26.97
2024-03-02T11:08:23.402Z,26.97
2024-03-02T11:09:23.413Z,27.01
2024-03-02T11:10:23.416Z,26.95
2024-03-02T11:11:23.450Z,27.01
2024-03-02T11:12:23.462Z,27.01
2024-03-02T11:13:23.435Z,26.99
2024-03-02T11:14:23.412Z,27.02
2024-03-02T11:15:23.537Z,26.99
2024-03-02T11:16:23.490Z,27.04
2024-03-02T11:17:23.521Z,27.02
2024-03-02T11:18:23.632Z,27.01
2024-03-02T11:19:23.633Z,27.02
2024-03-02T11:20:23.588Z,27.05
2024-03-02T11:21:23.658Z,27.06
2024-03-02T11:22:23.671Z,27.05
2024-03-02T11:23:23.701Z,27.05
2024-03-02T11:24:23.841Z,27.08
2024-03-02T11:25:23.919Z,27.06
2024-03-02T11:26:23.856Z,27.08
2024-03-02T11:27:23.938Z,27.12
2024-03-02T11:28:24.006Z,27.11
2024-03-02T11:29:24.056Z,27.14
2024-03-02T11:30:24.218Z,27.12
2024-03-02T11:31:24.186Z,27.16
2024-03-02T11:32:24.239Z,27.16
2024-03-02T11:33:24.406Z,27.18
2024-03-02T11:34:24.398Z,27.18
2024-03-02T11:35:24.495Z,27.16
2024-03-02T11:36:24.563Z,27.21
2024-03-02T11:37:24.586Z,27.21
2024-03-02T11:38:24.698Z,27.21
2024-03-02T11:39:24.750Z,27.24
2024-03-02T11:40:24.814Z,27.24
2024-03-02T11:41:24.861Z,27.26
2024-03-02T11:42:24.906Z,27.26
2024-03-02T11:43:24.976Z,27.26
2024-03-02T11:44:25.038Z,27.26
2024-03-02T11:45:25.139Z,27.29
2024-03-02T11:46:25.140Z,27.31
2024-03-02T11:47:25.238Z,27.32
2024-03-02T11:48:25.285Z,27.34
2024-03-02T11:49:25.322Z,27.32
2024-03-02T11:50:25.457Z,27.34
2024-03-02T11:51:25.435Z,27.36
2024-03-02T11:52:25.455Z,27.35
2024-03-02T11:53:25.518Z,27.36
2024-03-02T11:54:25.572Z,27.39
2024-03-02T11:55:25.578Z,27.39
2024-03-02T11:56:25.620Z,27.39
2024-03-02T11:57:25.770Z,27.43
2024-03-02T11:58:25.728Z,27.43
2024-03-02T11:59:25.752Z,27.46
2024-03-02T12:00:25.886Z,27.45
2024-03-02T12:01:25.968Z,27.48
2024-03-02T12:02:25.885Z,27.49
2024-03-02T12:03:25.936Z,27.53
2024-03-02T12:04:25.928Z,27.52
2024-03-02T12:05:25.931Z,27.53
2024-03-02T12:06:26.016Z,27.55
2024-03-02T12:07:25.987Z,27.55
2024-03-02T12:08:26.018Z,27.57
2024-03-02T12:09:26.089Z,27.60
2024-03-02T12:10:26.141Z,27.60
2024-03-02T12:11:26.070Z,27.62
2024-03-02T12:12:26.106Z,27.64
2024-03-02T12:13:26.079Z,27.64
2024-03-02T12:14:26.129Z,27.66
2024-03-02T12:15:26.111Z,27.69
2024-03-02T12:16:26.130Z,27.67
2024-03-02T12:17:26.135Z,27.67
2024-03-02T12:18:26.196Z,27.70
2024-03-02T12:19:26.116Z,27.73
2024-03-02T12:20:26.149Z,27.73
2024-03-02T12:21:26.186Z,27.77
2024-03-02T12:22:26.201Z,27.76
2024-03-02T12:23:26.254Z,27.79
2024-03-02T12:24:26.268Z,27.82
2024-03-02T12:25:26.320Z,27.82
2024-03-02T12:26:26.350Z,27.83
2024-03-02T12:27:26.401Z,27.86
2024-03-02T12:28:26.455Z,27.87
2024-03-02T12:29:26.489Z,27.87
2024-03-02T12:30:26.582Z,27.90
2024-03-02T12:31:26.621Z,27.92
2024-03-02T12:32:26.691Z,27.96
2024-03-02T12:33:26.779Z,27.97
2024-03-02T12:34:26.956Z,27.99
2024-03-02T12:35:26.929Z,28.01
2024-03-02T12:36:27.039Z,28.00
2024-03-02T12:37:27.024Z,28.04
2024-03-02T12:38:27.082Z,28.03
2024-03-02T12:39:27.204Z,28.04
2024-03-02T12:40:27.180Z,28.07
2024-03-02T12:41:29.452Z,28.08
2024-03-02T12:42:27.297Z,28.11
2024-03-02T12:43:27.353Z,28.13
2024-03-02T12:44:27.443Z,28.14
2024-03-02T12:45:27.530Z,28.15
2024-03-02T12:46:27.509Z,28.18
2024-03-02T12:47:27.576Z,28.20
2024-03-02T12:48:27.648Z,28.18
2024-03-02T12:49:27.629Z,28.20
2024-03-02T12:50:27.751Z,28.24
2024-03-02T12:51:27.751Z,28.25
2024-03-02T12:52:27.777Z,28.27
2024-03-02T12:53:27.797Z,28.28
2024-03-02T12:54:27.848Z,28.31
2024-03-02T12:55:27.868Z,28.31
2024-03-02T12:56:27.914Z,28.32
2024-03-02T12:57:27.935Z,28.35
2024-03-02T12:58:28.004Z,28.34
2024-03-02T12:59:28.152Z,28.34
2024-03-02T13:00:28.080Z,28.38
2024-03-02T13:01:28.135Z,28.38
2024-03-02T13:02:28.033Z,28.41
2024-03-02T13:03:28.052Z,28.44
2024-03-02T13:04:28.078Z,28.44
2024-03-02T13:05:28.084Z,28.45
2024-03-02T13:06:28.140Z,28.45
2024-03-02T13:07:28.118Z,28.48
2024-03-02T13:08:28.115Z,28.50
2024-03-02T13:09:28.124Z,28.51
2024-03-02T13:10:28.229Z,28.54
2024-03-02T13:11:28.179Z,28.55
2024-03-02T13:12:28.166Z,28.54
2024-03-02T13:13:28.139Z,28.55
2024-03-02T13:14:28.153Z,28.58
2024-03-02T13:15:28.282Z,28.58
2024-03-02T13:16:32.821Z,28.58
2024-03-02T13:17:32.644Z,28.61
2024-03-02T13:18:29.293Z,28.63
2024-03-02T13:19:28.242Z,28.66
2024-03-02T13:20:28.274Z,28.63
2024-03-02T13:21:28.281Z,28.68
2024-03-02T13:22:28.204Z,28.66
2024-03-02T13:23:28.232Z,28.68
2024-03-02T13:24:28.221Z,28.71
2024-03-02T13:25:30.112Z,28.71
2024-03-02T13:26:28.243Z,28.73
2024-03-02T13:27:28.300Z,28.72
2024-03-02T13:28:28.303Z,28.75
2024-03-02T13:29:28.337Z,28.76
2024-03-02T13:30:28.444Z,28.78
2024-03-02T13:31:28.422Z,28.78
2024-03-02T13:32:28.530Z,28.82
2024-03-02T13:33:28.572Z,28.81
2024-03-02T13:34:28.575Z,28.81
2024-03-02T13:35:28.637Z,28.82
2024-03-02T13:36:28.718Z,28.82
2024-03-02T13:37:28.759Z,28.85
2024-03-02T13:38:28.823Z,28.86
2024-03-02T13:39:28.917Z,28.86
2024-03-02T13:40:28.985Z,28.88
2024-03-02T13:41:29.022Z,28.88
2024-03-02T13:43:29.171Z,28.90
2024-03-02T13:44:29.250Z,28.90
2024-03-02T13:45:29.318Z,28.92
2024-03-02T13:46:29.402Z,28.89
2024-03-02T13:47:29.440Z,28.92
2024-03-02T13:48:29.555Z,28.92
2024-03-02T13:49:29.577Z,28.92
2024-03-02T13:50:29.713Z,28.92
2024-03-02T13:51:29.767Z,28.95
2024-03-02T13:52:29.786Z,28.93
2024-03-02T13:53:29.884Z,28.90
2024-03-02T13:54:29.952Z,28.92
2024-03-02T13:55:30.022Z,28.92
2024-03-02T13:56:30.061Z,28.93
2024-03-02T13:57:30.163Z,28.93
2024-03-02T13:58:30.230Z,28.92
2024-03-02T13:59:30.291Z,28.92
2024-03-02T14:00:30.360Z,28.90
